Terminal Aerodrome Forecast
Issued by NWS

Home | Current Version | Previous Version | Text Only | Print | Product List | Glossary On
Versions: 1 2 3 4 5 6 7 8 9 10 11 12 13 14
000
FTUS44 KSJT 291304 AAA
TAFJCT
TAF AMD
KJCT 291304Z 2913/3012 17011G17KT 4SM BR BKN021
     FM291500 22010G16KT P6SM VCTS SCT050CB SCT250
     FM292100 29014G20KT P6SM SCT250
     FM300200 32014G22KT P6SM SCT050 BKN100
     FM300800 33010KT P6SM SCT250=

USA.gov is the U.S. government's official web portal to all federal, state and local government web resources and services.